createdAt,value
2022-09-02T00:01:00.662Z,18.72
2022-09-02T00:03:31.595Z,18.95
2022-09-02T00:05:59.239Z,18.99
2022-09-02T00:08:27.041Z,19.02
2022-09-02T00:10:54.856Z,18.95
2022-09-02T00:13:22.446Z,18.78
2022-09-02T00:15:50.609Z,18.88
2022-09-02T00:18:18.583Z,18.85
2022-09-02T00:20:48.972Z,18.89
2022-09-02T00:23:16.775Z,18.86
2022-09-02T00:25:45.326Z,18.83
2022-09-02T00:28:14.926Z,18.81
2022-09-02T00:30:43.604Z,18.94
2022-09-02T00:33:12.292Z,18.77
2022-09-02T00:35:40.124Z,19.11
2022-09-02T00:38:12.268Z,18.88
2022-09-02T00:40:45.134Z,19.04
2022-09-02T00:43:12.914Z,18.94
2022-09-02T00:45:40.767Z,18.95
2022-09-02T00:48:08.255Z,18.86
2022-09-02T00:50:39.352Z,18.78
2022-09-02T00:53:10.094Z,18.85
2022-09-02T00:55:45.173Z,18.93
2022-09-02T00:58:29.427Z,19.06
2022-09-02T01:01:01.508Z,18.91
2022-09-02T01:03:31.597Z,19.11
2022-09-02T01:05:59.860Z,19.06
2022-09-02T01:08:32.797Z,19.11
2022-09-02T01:11:01.729Z,19.23
2022-09-02T01:13:31.431Z,19.17
2022-09-02T01:16:18.395Z,19.30
2022-09-02T01:18:50.386Z,19.33
2022-09-02T01:21:18.731Z,19.41
2022-09-02T01:23:47.441Z,19.33
2022-09-02T01:26:15.579Z,19.33
2022-09-02T01:28:46.589Z,19.40
2022-09-02T01:31:14.219Z,19.30
2022-09-02T01:33:42.357Z,19.35
2022-09-02T01:36:13.566Z,19.44
2022-09-02T01:38:41.036Z,19.55
2022-09-02T01:41:09.072Z,19.60
2022-09-02T01:43:40.500Z,19.57
2022-09-02T01:46:09.054Z,19.19
2022-09-02T01:48:37.040Z,19.38
2022-09-02T01:51:05.096Z,19.51
2022-09-02T01:53:33.725Z,19.56
2022-09-02T01:56:01.353Z,19.35
2022-09-02T01:58:29.158Z,19.51
2022-09-02T02:00:57.272Z,19.53
2022-09-02T02:03:25.410Z,19.61
2022-09-02T02:05:53.737Z,19.67
2022-09-02T02:08:22.085Z,19.80
2022-09-02T02:10:50.212Z,19.69
2022-09-02T02:13:17.908Z,19.57
2022-09-02T02:15:45.657Z,19.59
2022-09-02T02:18:18.912Z,19.62
2022-09-02T02:20:46.400Z,19.45
2022-09-02T02:23:14.444Z,19.62
2022-09-02T02:25:47.253Z,19.63
2022-09-02T02:28:15.031Z,19.76
2022-09-02T02:30:43.112Z,19.90
2022-09-02T02:33:10.988Z,19.77
2022-09-02T02:35:38.737Z,19.74
2022-09-02T02:38:06.262Z,19.66
2022-09-02T02:40:33.822Z,19.58
2022-09-02T02:43:01.641Z,19.72
2022-09-02T02:45:32.530Z,19.72
2022-09-02T02:48:00.111Z,19.69
2022-09-02T02:50:27.892Z,19.63
2022-09-02T02:52:56.494Z,19.62
2022-09-02T02:55:25.062Z,19.79
2022-09-02T02:57:53.429Z,19.80
2022-09-02T03:00:25.233Z,19.65
2022-09-02T03:02:57.782Z,19.78
2022-09-02T03:05:31.531Z,19.37
2022-09-02T03:08:02.871Z,19.60
2022-09-02T03:10:33.435Z,19.69
2022-09-02T03:13:02.264Z,19.60
2022-09-02T03:15:31.054Z,19.65
2022-09-02T03:17:58.624Z,19.53
2022-09-02T03:20:26.477Z,19.50
2022-09-02T03:22:56.561Z,19.36
2022-09-02T03:25:26.323Z,19.44
2022-09-02T03:27:55.086Z,19.27
2022-09-02T03:30:26.490Z,19.21
2022-09-02T03:33:00.456Z,19.03
2022-09-02T03:35:33.910Z,19.05
2022-09-02T03:38:01.828Z,19.02
2022-09-02T03:40:29.990Z,19.08
2022-09-02T03:43:00.098Z,19.01
2022-09-02T03:45:33.197Z,18.98
2022-09-02T03:48:03.164Z,18.85
2022-09-02T03:50:40.093Z,18.69
2022-09-02T03:53:27.517Z,18.56
2022-09-02T03:56:22.868Z,18.59
2022-09-02T03:58:52.624Z,18.51
2022-09-02T04:01:23.728Z,18.58
2022-09-02T04:03:54.415Z,18.38
2022-09-02T04:06:26.235Z,18.42
2022-09-02T04:09:01.309Z,18.36
2022-09-02T04:11:33.541Z,18.05
2022-09-02T04:14:01.422Z,18.02
2022-09-02T04:16:36.255Z,18.07
2022-09-02T04:19:06.122Z,18.02
2022-09-02T04:21:36.830Z,18.10
2022-09-02T04:24:10.621Z,18.13
2022-09-02T04:26:45.239Z,17.97
2022-09-02T04:29:14.476Z,17.87
2022-09-02T04:31:43.118Z,17.91
2022-09-02T04:34:11.092Z,17.91
2022-09-02T04:36:40.918Z,18.08
2022-09-02T04:39:09.491Z,18.13
2022-09-02T04:41:38.119Z,18.13
2022-09-02T04:44:09.885Z,18.05
2022-09-02T04:46:37.795Z,17.98
2022-09-02T04:49:06.217Z,17.81
2022-09-02T04:51:34.365Z,17.97
2022-09-02T04:54:02.480Z,18.13
2022-09-02T04:56:34.200Z,17.98
2022-09-02T04:59:10.290Z,18.05
2022-09-02T05:01:38.832Z,18.10
2022-09-02T05:04:10.347Z,18.19
2022-09-02T05:06:44.045Z,18.20
2022-09-02T05:09:15.605Z,18.23
2022-09-02T05:11:44.263Z,18.48
2022-09-02T05:14:13.407Z,18.39
2022-09-02T05:16:42.918Z,18.37
2022-09-02T05:19:14.715Z,18.46
2022-09-02T05:21:44.408Z,18.58
2022-09-02T05:24:13.448Z,18.67
2022-09-02T05:26:45.601Z,18.86
2022-09-02T05:29:14.178Z,18.96
2022-09-02T05:31:42.848Z,18.81
2022-09-02T05:34:12.130Z,18.93
2022-09-02T05:36:43.419Z,19.14
2022-09-02T05:39:11.646Z,19.21
2022-09-02T05:41:39.696Z,19.34
2022-09-02T05:44:13.483Z,19.36
2022-09-02T05:46:43.543Z,19.41
2022-09-02T05:49:18.001Z,19.49
2022-09-02T05:51:55.094Z,19.59
2022-09-02T05:54:28.804Z,19.42
2022-09-02T05:57:09.332Z,19.47
2022-09-02T05:59:42.514Z,19.53
2022-09-02T06:02:12.314Z,19.71
2022-09-02T06:04:42.715Z,19.83
2022-09-02T06:07:13.887Z,19.95
2022-09-02T06:09:45.021Z,20.00
2022-09-02T06:12:14.553Z,19.79
2022-09-02T06:14:49.076Z,20.06
2022-09-02T06:17:20.582Z,20.13
2022-09-02T06:19:48.471Z,20.17
2022-09-02T06:22:21.677Z,20.12
2022-09-02T06:24:52.550Z,20.21
2022-09-02T06:27:32.512Z,20.30
2022-09-02T06:30:01.071Z,20.25
2022-09-02T06:32:29.688Z,20.37
2022-09-02T06:34:58.804Z,20.35
2022-09-02T06:37:29.499Z,20.39
2022-09-02T06:40:06.540Z,20.41
2022-09-02T06:42:35.109Z,19.77
2022-09-02T06:45:08.951Z,20.11
2022-09-02T06:47:37.360Z,20.45
2022-09-02T06:50:05.162Z,20.40
2022-09-02T06:52:32.810Z,20.62
2022-09-02T06:55:10.674Z,20.47
2022-09-02T06:57:41.262Z,20.32
2022-09-02T07:00:16.840Z,20.19
2022-09-02T07:03:04.331Z,20.50
2022-09-02T07:05:44.371Z,20.50
2022-09-02T07:08:17.564Z,20.50
2022-09-02T07:10:45.685Z,20.73
2022-09-02T07:13:22.067Z,20.48
2022-09-02T07:15:57.672Z,20.40
2022-09-02T07:18:31.141Z,20.72
2022-09-02T07:21:01.188Z,20.68
2022-09-02T07:23:29.786Z,20.71
2022-09-02T07:26:00.966Z,20.76
2022-09-02T07:28:28.943Z,20.76
2022-09-02T07:31:01.067Z,20.60
2022-09-02T07:33:32.559Z,20.68
2022-09-02T07:36:00.213Z,20.70
2022-09-02T07:38:33.260Z,20.68
2022-09-02T07:41:18.459Z,20.45
2022-09-02T07:43:51.140Z,20.77
2022-09-02T07:46:20.350Z,20.76
2022-09-02T07:48:50.825Z,20.67
2022-09-02T07:51:35.429Z,20.69
2022-09-02T07:54:17.273Z,20.87
2022-09-02T07:56:45.631Z,20.87
2022-09-02T07:59:13.148Z,20.84
2022-09-02T08:04:28.560Z,20.83
2022-09-02T08:06:59.790Z,20.37
2022-09-02T08:09:29.184Z,20.50
2022-09-02T08:12:04.925Z,20.66
2022-09-02T08:14:32.663Z,20.66
2022-09-02T08:17:08.506Z,20.70
2022-09-02T08:19:36.344Z,20.91
2022-09-02T08:22:06.865Z,21.00
2022-09-02T08:24:34.310Z,21.01
2022-09-02T08:27:02.141Z,21.03
2022-09-02T08:29:29.771Z,21.00
2022-09-02T08:31:57.461Z,20.89
2022-09-02T08:34:30.436Z,20.97
2022-09-02T08:37:03.735Z,21.14
2022-09-02T08:39:40.179Z,21.44
2022-09-02T08:42:25.008Z,21.25
2022-09-02T08:44:58.442Z,21.26
2022-09-02T08:47:38.536Z,21.43
2022-09-02T08:50:14.057Z,21.59
2022-09-02T08:52:59.563Z,21.56
2022-09-02T08:55:47.852Z,21.49
2022-09-02T08:58:23.608Z,21.67
2022-09-02T09:01:11.772Z,21.52
2022-09-02T09:04:11.499Z,21.32
2022-09-02T09:06:55.060Z,21.59
2022-09-02T09:09:37.911Z,21.74
2022-09-02T09:12:11.958Z,21.68
2022-09-02T09:14:51.545Z,21.68
2022-09-02T09:17:44.722Z,21.57
2022-09-02T09:20:32.192Z,21.83
2022-09-02T09:23:07.097Z,21.97
2022-09-02T09:25:35.009Z,22.02
2022-09-02T09:28:07.372Z,21.77
2022-09-02T09:30:45.079Z,22.10
2022-09-02T09:33:18.202Z,22.21
2022-09-02T09:36:05.581Z,21.90
2022-09-02T09:38:41.676Z,22.10
2022-09-02T09:41:34.708Z,22.31
2022-09-02T09:44:08.106Z,22.42
2022-09-02T09:46:39.917Z,22.40
2022-09-02T09:49:18.081Z,22.69
2022-09-02T09:51:59.527Z,22.48
2022-09-02T09:54:30.270Z,22.67
2022-09-02T09:57:14.005Z,22.80
2022-09-02T09:59:57.106Z,22.75
2022-09-02T10:02:26.802Z,22.90
2022-09-02T10:05:26.944Z,22.94
2022-09-02T10:08:00.665Z,23.10
2022-09-02T10:10:30.948Z,23.10
2022-09-02T10:13:01.740Z,23.20
2022-09-02T10:15:42.664Z,23.34
2022-09-02T10:18:26.393Z,23.25
2022-09-02T10:21:33.212Z,23.42
2022-09-02T10:24:27.921Z,23.45
2022-09-02T10:27:06.868Z,23.57
2022-09-02T10:30:14.749Z,23.67
2022-09-02T10:33:04.807Z,23.65
2022-09-02T10:35:45.876Z,23.81
2022-09-02T10:38:27.051Z,23.81
2022-09-02T10:41:20.297Z,23.73
2022-09-02T10:44:18.854Z,23.76
2022-09-02T10:47:02.625Z,24.05
2022-09-02T10:49:59.231Z,23.83
2022-09-02T10:52:46.211Z,23.81
2022-09-02T10:55:39.946Z,23.98
2022-09-02T10:58:12.307Z,23.78
2022-09-02T11:00:42.378Z,23.83
2022-09-02T11:03:14.094Z,23.84
2022-09-02T11:05:48.181Z,23.92
2022-09-02T11:08:34.762Z,24.01
2022-09-02T11:11:15.079Z,24.09
2022-09-02T11:13:58.636Z,24.28
2022-09-02T11:16:31.107Z,24.28
2022-09-02T11:19:19.894Z,24.16
2022-09-02T11:22:00.047Z,24.40
2022-09-02T11:24:40.358Z,24.20
2022-09-02T11:27:41.522Z,24.30
2022-09-02T11:30:26.148Z,24.29
2022-09-02T11:33:24.091Z,24.51
2022-09-02T11:35:51.919Z,23.97
2022-09-02T11:38:45.260Z,24.28
2022-09-02T11:41:58.468Z,24.15
2022-09-02T11:44:54.420Z,24.26
2022-09-02T11:47:49.563Z,24.16
2022-09-02T11:50:41.740Z,24.34
2022-09-02T11:53:27.573Z,24.19
2022-09-02T11:56:07.432Z,24.40
2022-09-02T11:58:39.244Z,24.74
2022-09-02T12:01:16.221Z,24.74
2022-09-02T12:07:10.385Z,25.03
2022-09-02T12:09:48.590Z,25.13
2022-09-02T12:12:39.256Z,24.99
2022-09-02T12:15:07.669Z,24.99
2022-09-02T12:17:42.162Z,24.83
2022-09-02T12:20:33.669Z,24.93
2022-09-02T12:23:02.688Z,24.92
2022-09-02T12:25:35.805Z,25.05
2022-09-02T12:28:23.881Z,25.13
2022-09-02T12:31:15.469Z,25.36
2022-09-02T12:33:47.840Z,25.41
2022-09-02T12:36:40.003Z,25.25
2022-09-02T12:39:23.152Z,25.07
2022-09-02T12:41:57.930Z,25.13
2022-09-02T12:44:54.333Z,25.22
2022-09-02T12:47:46.797Z,25.19
2022-09-02T12:50:34.653Z,24.70
2022-09-02T12:53:25.664Z,24.65
2022-09-02T12:56:04.372Z,24.91
2022-09-02T12:58:43.450Z,24.60
2022-09-02T13:01:30.741Z,24.94
2022-09-02T13:04:03.394Z,25.08
2022-09-02T13:06:46.861Z,25.03
2022-09-02T13:09:45.527Z,24.86
2022-09-02T13:12:51.302Z,24.75
2022-09-02T13:15:28.139Z,24.83
2022-09-02T13:18:22.611Z,24.87
2022-09-02T13:21:27.723Z,24.86
2022-09-02T13:24:41.689Z,25.00
2022-09-02T13:27:14.381Z,24.99
2022-09-02T13:30:10.013Z,25.09
2022-09-02T13:32:39.212Z,25.14
2022-09-02T13:35:21.450Z,25.24
2022-09-02T13:38:00.742Z,25.04
2022-09-02T13:40:35.281Z,25.29
2022-09-02T13:43:12.743Z,25.30
2022-09-02T13:45:40.646Z,25.21
2022-09-02T13:48:22.333Z,25.62
2022-09-02T13:50:52.100Z,25.37
2022-09-02T13:53:49.237Z,25.65
2022-09-02T13:56:27.374Z,25.58
2022-09-02T13:58:58.959Z,25.57
2022-09-02T14:01:41.865Z,25.58
2022-09-02T14:04:12.175Z,25.22
2022-09-02T14:06:43.116Z,25.42
2022-09-02T14:09:23.184Z,25.19
2022-09-02T14:11:51.214Z,25.14
2022-09-02T14:14:22.437Z,25.24
2022-09-02T14:17:29.093Z,25.06
2022-09-02T14:20:16.726Z,25.02
2022-09-02T14:22:55.012Z,24.87
2022-09-02T14:25:27.418Z,24.94
2022-09-02T14:28:03.141Z,24.86
2022-09-02T14:30:42.060Z,25.00
2022-09-02T14:33:42.024Z,24.94
2022-09-02T14:36:18.743Z,24.79
2022-09-02T14:38:47.749Z,24.83
2022-09-02T14:41:24.462Z,24.97
2022-09-02T14:44:10.692Z,24.81
2022-09-02T14:46:45.685Z,24.89
2022-09-02T14:49:37.390Z,25.00
2022-09-02T14:52:19.584Z,24.78
2022-09-02T14:54:50.299Z,24.26
2022-09-02T14:57:35.972Z,24.53
2022-09-02T15:00:17.298Z,24.53
2022-09-02T15:02:57.480Z,24.58
2022-09-02T15:05:29.512Z,24.58
2022-09-02T15:08:02.949Z,24.81
2022-09-02T15:10:36.374Z,24.69
2022-09-02T15:13:05.518Z,24.68
2022-09-02T15:15:34.498Z,24.38
2022-09-02T15:18:03.321Z,24.53
2022-09-02T15:20:34.030Z,24.63
2022-09-02T15:23:11.562Z,24.76
2022-09-02T15:25:40.477Z,24.78
2022-09-02T15:28:09.767Z,24.72
2022-09-02T15:30:42.156Z,24.91
2022-09-02T15:33:20.745Z,24.96
2022-09-02T15:35:55.652Z,25.00
2022-09-02T15:38:24.364Z,25.14
2022-09-02T15:40:54.313Z,24.93
2022-09-02T15:43:23.454Z,25.02
2022-09-02T15:45:57.988Z,25.11
2022-09-02T15:48:28.933Z,25.03
2022-09-02T15:53:38.084Z,24.89
2022-09-02T15:56:28.841Z,24.71
2022-09-02T15:59:02.420Z,24.54
2022-09-02T16:01:37.292Z,24.09
2022-09-02T16:04:14.537Z,24.26
2022-09-02T16:06:48.290Z,24.07
2022-09-02T16:09:23.158Z,24.01
2022-09-02T16:11:56.168Z,23.83
2022-09-02T16:14:25.811Z,23.81
2022-09-02T16:16:55.984Z,23.79
2022-09-02T16:19:29.800Z,23.82
2022-09-02T16:22:03.818Z,23.60
2022-09-02T16:24:33.517Z,23.62
2022-09-02T16:27:42.568Z,23.40
2022-09-02T16:30:11.026Z,23.41
2022-09-02T16:32:38.660Z,23.26
2022-09-02T16:35:06.822Z,23.45
2022-09-02T16:37:35.053Z,23.55
2022-09-02T16:40:12.152Z,23.05
2022-09-02T16:42:44.410Z,23.21
2022-09-02T16:45:15.463Z,22.97
2022-09-02T16:47:44.621Z,22.99
2022-09-02T16:50:13.318Z,22.92
2022-09-02T16:52:47.912Z,22.89
2022-09-02T16:55:22.255Z,22.75
2022-09-02T16:57:51.295Z,22.78
2022-09-02T17:00:19.340Z,22.91
2022-09-02T17:02:53.691Z,22.78
2022-09-02T17:05:21.844Z,22.75
2022-09-02T17:07:52.222Z,22.29
2022-09-02T17:10:22.386Z,22.55
2022-09-02T17:13:02.815Z,22.55
2022-09-02T17:15:34.794Z,22.58
2022-09-02T17:18:03.341Z,22.49
2022-09-02T17:20:32.318Z,22.39
2022-09-02T17:23:00.450Z,22.47
2022-09-02T17:25:31.557Z,22.08
2022-09-02T17:28:03.700Z,22.20
2022-09-02T17:30:32.529Z,22.23
2022-09-02T17:33:06.042Z,22.47
2022-09-02T17:35:34.875Z,22.24
2022-09-02T17:38:02.415Z,22.07
2022-09-02T17:40:48.810Z,22.01
2022-09-02T17:43:16.802Z,21.85
2022-09-02T17:45:47.646Z,21.78
2022-09-02T17:48:39.053Z,21.54
2022-09-02T17:51:19.749Z,21.60
2022-09-02T17:53:47.516Z,21.47
2022-09-02T17:56:42.704Z,21.55
2022-09-02T17:59:34.959Z,21.11
2022-09-02T18:02:15.018Z,21.30
2022-09-02T18:05:01.881Z,21.29
2022-09-02T18:07:51.046Z,21.22
2022-09-02T18:10:19.101Z,21.19
2022-09-02T18:12:47.306Z,21.05
2022-09-02T18:15:18.558Z,21.03
2022-09-02T18:17:57.748Z,20.91
2022-09-02T18:20:42.069Z,20.98
2022-09-02T18:23:39.658Z,20.69
2022-09-02T18:26:46.105Z,20.94
2022-09-02T18:29:27.481Z,20.78
2022-09-02T18:32:14.423Z,20.90
2022-09-02T18:34:51.798Z,20.99
2022-09-02T18:37:45.938Z,20.95
2022-09-02T18:41:03.862Z,20.88
2022-09-02T18:43:53.521Z,20.71
2022-09-02T18:46:29.908Z,20.60
2022-09-02T18:49:04.585Z,20.68
2022-09-02T18:51:41.139Z,20.58
2022-09-02T18:54:19.641Z,20.64
2022-09-02T18:56:57.606Z,20.67
2022-09-02T18:59:47.570Z,20.57
2022-09-02T19:02:31.336Z,20.40
2022-09-02T19:05:10.292Z,20.51
2022-09-02T19:08:07.687Z,20.35
2022-09-02T19:10:36.113Z,20.30
2022-09-02T19:13:05.966Z,20.27
2022-09-02T19:15:37.439Z,20.44
2022-09-02T19:18:09.458Z,20.39
2022-09-02T19:20:38.575Z,20.35
2022-09-02T19:23:12.132Z,20.22
2022-09-02T19:25:47.020Z,20.32
2022-09-02T19:28:17.438Z,20.26
2022-09-02T19:30:46.062Z,20.20
2022-09-02T19:33:14.610Z,19.89
2022-09-02T19:35:46.972Z,19.78
2022-09-02T19:38:17.765Z,19.84
2022-09-02T19:40:49.763Z,19.95
2022-09-02T19:43:17.647Z,20.04
2022-09-02T19:45:49.208Z,19.97
2022-09-02T19:48:18.470Z,19.91
2022-09-02T19:50:47.990Z,19.94
2022-09-02T19:53:22.740Z,19.83
2022-09-02T19:55:51.646Z,19.53
2022-09-02T19:58:20.329Z,19.65
2022-09-02T20:00:48.563Z,19.61
2022-09-02T20:03:16.752Z,19.65
2022-09-02T20:05:44.451Z,19.70
2022-09-02T20:08:12.156Z,19.64
2022-09-02T20:10:40.290Z,19.59
2022-09-02T20:13:13.851Z,19.45
2022-09-02T20:15:42.199Z,19.15
2022-09-02T20:18:15.157Z,19.17
2022-09-02T20:20:51.821Z,19.21
2022-09-02T20:23:28.666Z,19.02
2022-09-02T20:26:25.800Z,18.88
2022-09-02T20:29:26.546Z,19.10
2022-09-02T20:32:18.915Z,18.93
2022-09-02T20:34:49.456Z,18.92
2022-09-02T20:37:51.981Z,18.89
2022-09-02T20:40:46.462Z,18.69
2022-09-02T20:43:27.345Z,18.71
2022-09-02T20:46:20.446Z,18.78
2022-09-02T20:49:09.012Z,18.38
2022-09-02T20:52:04.355Z,18.26
2022-09-02T20:55:11.415Z,18.53
2022-09-02T20:58:16.382Z,18.30
2022-09-02T21:00:55.925Z,18.22
2022-09-02T21:03:26.134Z,18.11
2022-09-02T21:05:58.370Z,18.26
2022-09-02T21:08:35.654Z,18.05
2022-09-02T21:11:11.413Z,18.31
2022-09-02T21:13:49.829Z,18.17
2022-09-02T21:16:34.503Z,17.74
2022-09-02T21:19:21.512Z,17.45
2022-09-02T21:21:53.488Z,17.59
2022-09-02T21:24:39.788Z,17.50
2022-09-02T21:27:21.417Z,17.39
2022-09-02T21:30:09.320Z,17.55
2022-09-02T21:32:44.712Z,17.28
2022-09-02T21:35:27.723Z,17.28
2022-09-02T21:38:10.698Z,17.68
2022-09-02T21:41:29.645Z,17.78
2022-09-02T21:44:28.782Z,17.87
2022-09-02T21:47:10.866Z,17.68
2022-09-02T21:50:22.137Z,17.25
2022-09-02T21:52:55.172Z,17.52
2022-09-02T21:55:39.189Z,17.50
2022-09-02T21:58:51.828Z,17.03
2022-09-02T22:01:46.552Z,16.89
2022-09-02T22:04:33.451Z,17.08
2022-09-02T22:07:25.320Z,17.13
2022-09-02T22:10:09.119Z,16.97
2022-09-02T22:12:40.347Z,17.00
2022-09-02T22:15:19.247Z,16.76
2022-09-02T22:18:00.194Z,16.98
2022-09-02T22:20:40.721Z,17.10
2022-09-02T22:23:15.943Z,17.44
2022-09-02T22:25:48.936Z,17.10
2022-09-02T22:28:26.830Z,16.87
2022-09-02T22:31:00.204Z,16.83
2022-09-02T22:33:34.115Z,17.10
2022-09-02T22:36:12.047Z,17.24
2022-09-02T22:38:49.381Z,17.00
2022-09-02T22:41:42.100Z,16.61
2022-09-02T22:44:17.432Z,16.75
2022-09-02T22:47:12.630Z,17.07
2022-09-02T22:50:04.446Z,17.16
2022-09-02T22:52:46.140Z,17.11
2022-09-02T22:55:38.243Z,16.81
2022-09-02T22:58:11.527Z,16.97
2022-09-02T23:01:05.767Z,17.25
2022-09-02T23:03:43.356Z,16.92
2022-09-02T23:06:17.446Z,17.01
2022-09-02T23:08:46.186Z,16.45
2022-09-02T23:11:41.491Z,16.59
2022-09-02T23:14:31.564Z,16.86
2022-09-02T23:17:34.711Z,16.59
2022-09-02T23:20:20.864Z,16.76
2022-09-02T23:23:14.156Z,16.63
2022-09-02T23:25:52.397Z,16.54
2022-09-02T23:28:31.255Z,16.57
2022-09-02T23:31:11.402Z,16.50
2022-09-02T23:34:30.642Z,16.78
2022-09-02T23:37:05.016Z,16.38
2022-09-02T23:40:11.622Z,16.38
2022-09-02T23:42:39.586Z,16.70
2022-09-02T23:45:28.467Z,16.88
2022-09-02T23:48:29.661Z,16.86
2022-09-02T23:51:17.553Z,16.70
2022-09-02T23:54:20.715Z,16.50
2022-09-02T23:57:26.970Z,16.48
